Time,TemperatureF,DewpointF,PressureIn,WindDirection,WindDirectionDegrees,WindSpeedMPH,WindSpeedGustMPH,Humidity,HourlyPrecipIn,Conditions,Clouds,dailyrainin,SoftwareType,DateUTC
2013-04-28 00:01:00,56.7,36.8,30.25,SSE,148,4.5,4.5,47,0.00,,---,0.00,VWS V14.01,2013-04-28 04:01:00,
2013-04-28 00:02:00,56.5,36.7,30.25,SE,145,3.9,4.5,47,0.00,,---,0.00,VWS V14.01,2013-04-28 04:02:00,
2013-04-28 00:07:00,56.3,37.2,30.25,SE,139,4.5,5.2,49,0.00,,---,0.00,VWS V14.01,2013-04-28 04:07:00,
2013-04-28 00:12:00,56.1,37.1,30.25,SSE,147,5.2,5.8,49,0.00,,---,0.00,VWS V14.01,2013-04-28 04:12:00,
2013-04-28 00:17:00,56.1,37.1,30.25,SSE,152,5.2,5.2,49,0.00,,---,0.00,VWS V14.01,2013-04-28 04:17:00,
2013-04-28 00:23:00,56.1,37.1,30.25,SE,135,5.2,5.2,49,0.00,,---,0.00,VWS V14.01,2013-04-28 04:23:00,
2013-04-28 00:28:00,56.1,37.1,30.25,SE,144,4.5,4.5,49,0.00,,---,0.00,VWS V14.01,2013-04-28 04:28:00,
2013-04-28 00:33:00,56.1,37.1,30.25,SE,139,3.2,4.5,49,0.00,,---,0.00,VWS V14.01,2013-04-28 04:33:00,
2013-04-28 00:38:00,56.1,37.1,30.25,SE,141,3.9,3.9,49,0.00,,---,0.00,VWS V14.01,2013-04-28 04:38:00,
2013-04-28 00:43:00,55.9,36.9,30.25,SE,141,3.2,3.2,49,0.00,,---,0.00,VWS V14.01,2013-04-28 04:43:00,
2013-04-28 00:48:00,55.9,37.6,30.25,SE,141,0.0,0.0,50,0.00,,---,0.00,VWS V14.01,2013-04-28 04:48:00,
2013-04-28 00:53:00,55.9,37.6,30.25,SE,141,0.0,0.0,50,0.00,,---,0.00,VWS V14.01,2013-04-28 04:53:00,
2013-04-28 00:59:00,55.8,37.4,30.25,SE,141,0.0,0.0,50,0.00,,---,0.00,VWS V14.01,2013-04-28 04:59:00,
2013-04-28 01:04:00,55.8,37.4,30.25,SE,141,0.0,0.0,50,0.00,,---,0.00,VWS V14.01,2013-04-28 05:04:00,
2013-04-28 01:09:00,55.6,37.3,30.25,SE,141,0.0,0.0,50,0.00,,---,0.00,VWS V14.01,2013-04-28 05:09:00,
2013-04-28 01:14:00,55.4,37.1,30.25,SE,141,0.0,0.0,50,0.00,,---,0.00,VWS V14.01,2013-04-28 05:14:00,
2013-04-28 01:19:00,55.4,37.1,30.25,SE,141,0.0,0.0,50,0.00,,---,0.00,VWS V14.01,2013-04-28 05:19:00,
2013-04-28 01:24:00,55.2,37.6,30.25,SE,141,0.0,0.0,51,0.00,,---,0.00,VWS V14.01,2013-04-28 05:24:00,
2013-04-28 01:29:00,55.0,37.5,30.25,SE,140,3.9,3.9,51,0.00,,---,0.00,VWS V14.01,2013-04-28 05:29:00,
2013-04-28 01:34:00,55.0,37.5,30.25,SE,141,0.0,0.0,51,0.00,,---,0.00,VWS V14.01,2013-04-28 05:34:00,
2013-04-28 01:39:00,55.0,37.5,30.25,SSE,153,7.8,7.8,51,0.00,,---,0.00,VWS V14.01,2013-04-28 05:39:00,
2013-04-28 01:44:00,55.2,37.6,30.22,SE,138,5.2,5.2,51,0.00,,---,0.00,VWS V14.01,2013-04-28 05:44:00,
2013-04-28 01:49:00,55.6,38.0,30.22,SSE,160,9.1,9.1,51,0.00,,---,0.00,VWS V14.01,2013-04-28 05:49:00,
2013-04-28 01:54:00,55.9,38.3,30.22,SSE,153,7.8,7.8,51,0.00,,---,0.00,VWS V14.01,2013-04-28 05:54:00,
2013-04-28 02:00:00,56.1,38.5,30.25,SE,146,0.0,3.9,51,0.00,,---,0.00,VWS V14.01,2013-04-28 06:00:00,
2013-04-28 02:05:00,56.3,38.6,30.25,SE,146,0.0,0.0,51,0.00,,---,0.00,VWS V14.01,2013-04-28 06:05:00,
2013-04-28 02:10:00,56.3,38.6,30.25,SSE,165,0.0,0.0,51,0.00,,---,0.00,VWS V14.01,2013-04-28 06:10:00,
2013-04-28 02:15:00,56.3,38.6,30.22,South,189,3.2,4.5,51,0.00,,---,0.00,VWS V14.01,2013-04-28 06:15:00,
2013-04-28 02:20:00,56.1,38.5,30.22,SE,143,4.5,7.8,51,0.00,,---,0.00,VWS V14.01,2013-04-28 06:20:00,
2013-04-28 02:25:00,56.1,38.5,30.22,SE,140,5.8,5.8,51,0.00,,---,0.00,VWS V14.01,2013-04-28 06:25:00,
2013-04-28 02:31:00,56.1,38.5,30.22,SSE,154,4.5,5.2,51,0.00,,---,0.00,VWS V14.01,2013-04-28 06:31:00,
2013-04-28 02:36:00,55.9,38.3,30.22,SE,144,3.9,4.5,51,0.00,,---,0.00,VWS V14.01,2013-04-28 06:36:00,
2013-04-28 02:41:00,56.1,38.5,30.22,ESE,106,3.9,5.8,51,0.00,,---,0.00,VWS V14.01,2013-04-28 06:41:00,
2013-04-28 02:46:00,55.9,38.3,30.22,SE,131,5.8,5.8,51,0.00,,---,0.00,VWS V14.01,2013-04-28 06:46:00,
2013-04-28 02:51:00,55.9,38.3,30.22,SE,135,6.5,7.8,51,0.00,,---,0.00,VWS V14.01,2013-04-28 06:51:00,
2013-04-28 02:56:00,55.9,38.3,30.22,SSE,147,4.5,4.5,51,0.00,,---,0.00,VWS V14.01,2013-04-28 06:56:00,
2013-04-28 03:01:00,55.9,38.3,30.22,SE,136,4.5,7.8,51,0.00,,---,0.00,VWS V14.01,2013-04-28 07:01:00,
2013-04-28 03:06:00,55.9,38.3,30.22,SE,139,5.8,5.8,51,0.00,,---,0.00,VWS V14.01,2013-04-28 07:06:00,
2013-04-28 03:12:00,55.8,38.1,30.22,SE,131,5.8,5.8,51,0.00,,---,0.00,VWS V14.01,2013-04-28 07:12:00,
2013-04-28 03:17:00,55.8,38.1,30.22,SE,127,0.0,5.2,51,0.00,,---,0.00,VWS V14.01,2013-04-28 07:17:00,
2013-04-28 03:22:00,55.6,38.0,30.22,ESE,123,3.9,3.9,51,0.00,,---,0.00,VWS V14.01,2013-04-28 07:22:00,
2013-04-28 03:27:00,55.4,37.8,30.22,ESE,115,0.0,3.2,51,0.00,,---,0.00,VWS V14.01,2013-04-28 07:27:00,
2013-04-28 03:32:00,55.2,38.3,30.22,ESE,113,0.0,0.0,53,0.00,,---,0.00,VWS V14.01,2013-04-28 07:32:00,
2013-04-28 03:37:00,55.0,38.2,30.22,ESE,113,0.0,0.0,53,0.00,,---,0.00,VWS V14.01,2013-04-28 07:37:00,
2013-04-28 03:42:00,54.9,38.0,30.22,ESE,113,0.0,0.0,53,0.00,,---,0.00,VWS V14.01,2013-04-28 07:42:00,
2013-04-28 03:48:00,54.7,37.8,30.22,South,178,0.0,0.0,53,0.00,,---,0.00,VWS V14.01,2013-04-28 07:48:00,
2013-04-28 03:53:00,54.7,37.8,30.22,SE,145,5.8,8.4,53,0.00,,---,0.00,VWS V14.01,2013-04-28 07:53:00,
2013-04-28 03:58:00,54.7,37.8,30.19,SSE,156,0.0,3.9,53,0.00,,---,0.00,VWS V14.01,2013-04-28 07:58:00,
2013-04-28 04:03:00,54.7,37.8,30.19,SSE,168,0.0,0.0,53,0.00,,---,0.00,VWS V14.01,2013-04-28 08:03:00,
2013-04-28 04:08:00,54.7,37.8,30.19,SSE,168,0.0,0.0,53,0.00,,---,0.00,VWS V14.01,2013-04-28 08:08:00,
2013-04-28 04:13:00,54.7,37.8,30.22,SSE,156,0.0,0.0,53,0.00,,---,0.00,VWS V14.01,2013-04-28 08:13:00,
2013-04-28 04:18:00,54.7,37.8,30.22,SSE,156,0.0,0.0,53,0.00,,---,0.00,VWS V14.01,2013-04-28 08:18:00,
2013-04-28 04:24:00,54.5,37.7,30.22,SSE,166,0.0,0.0,53,0.00,,---,0.00,VWS V14.01,2013-04-28 08:24:00,
2013-04-28 04:29:00,54.5,37.7,30.22,SSE,166,0.0,0.0,53,0.00,,---,0.00,VWS V14.01,2013-04-28 08:29:00,
2013-04-28 04:34:00,54.5,38.3,30.22,SSW,203,3.9,4.5,54,0.00,,---,0.00,VWS V14.01,2013-04-28 08:34:00,
2013-04-28 04:39:00,54.3,38.1,30.22,SSW,197,0.0,0.0,54,0.00,,---,0.00,VWS V14.01,2013-04-28 08:39:00,
2013-04-28 04:44:00,54.1,38.0,30.22,South,176,0.0,0.0,54,0.00,,---,0.00,VWS V14.01,2013-04-28 08:44:00,
2013-04-28 04:49:00,54.0,37.8,30.22,South,186,0.0,7.1,54,0.00,,---,0.00,VWS V14.01,2013-04-28 08:49:00,
2013-04-28 04:54:00,53.8,37.6,30.22,South,180,3.9,8.4,54,0.00,,---,0.00,VWS V14.01,2013-04-28 08:54:00,
2013-04-28 04:59:00,53.8,37.6,30.22,South,185,0.0,3.2,54,0.00,,---,0.00,VWS V14.01,2013-04-28 08:59:00,
2013-04-28 05:05:00,53.6,37.5,30.22,South,172,3.2,3.2,54,0.00,,---,0.00,VWS V14.01,2013-04-28 09:05:00,
2013-04-28 05:10:00,53.4,38.0,30.22,South,181,3.2,3.2,56,0.00,,---,0.00,VWS V14.01,2013-04-28 09:10:00,
2013-04-28 05:15:00,53.2,37.8,30.19,SSW,210,3.9,3.9,56,0.00,,---,0.00,VWS V14.01,2013-04-28 09:15:00,
2013-04-28 05:20:00,53.1,37.6,30.19,South,179,3.2,3.9,56,0.00,,---,0.00,VWS V14.01,2013-04-28 09:20:00,
2013-04-28 05:25:00,53.1,37.6,30.19,SSW,192,0.0,0.0,56,0.00,,---,0.00,VWS V14.01,2013-04-28 09:25:00,
2013-04-28 05:30:00,52.9,37.5,30.19,South,188,3.9,4.5,56,0.00,,---,0.00,VWS V14.01,2013-04-28 09:30:00,
2013-04-28 05:35:00,52.9,38.1,30.19,South,190,0.0,0.0,57,0.00,,---,0.00,VWS V14.01,2013-04-28 09:35:00,
2013-04-28 05:40:00,52.9,38.1,30.19,SW,217,0.0,0.0,57,0.00,,---,0.00,VWS V14.01,2013-04-28 09:40:00,
2013-04-28 05:46:00,52.9,38.1,30.19,SSW,192,0.0,0.0,57,0.00,,---,0.00,VWS V14.01,2013-04-28 09:46:00,
2013-04-28 05:51:00,52.9,38.1,30.19,SSW,211,0.0,0.0,57,0.00,,---,0.00,VWS V14.01,2013-04-28 09:51:00,
2013-04-28 05:56:00,52.9,38.1,30.19,SW,217,0.0,0.0,57,0.00,,---,0.00,VWS V14.01,2013-04-28 09:56:00,
2013-04-28 06:01:00,52.9,38.1,30.22,SW,229,0.0,0.0,57,0.00,,---,0.00,VWS V14.01,2013-04-28 10:01:00,
2013-04-28 06:06:00,52.9,38.1,30.22,SW,235,0.0,0.0,57,0.00,,---,0.00,VWS V14.01,2013-04-28 10:06:00,
2013-04-28 06:11:00,52.9,38.1,30.22,WSW,243,0.0,0.0,57,0.00,,---,0.00,VWS V14.01,2013-04-28 10:11:00,
2013-04-28 06:16:00,52.9,38.1,30.22,SSE,162,5.2,5.2,57,0.00,,---,0.00,VWS V14.01,2013-04-28 10:16:00,
2013-04-28 06:22:00,52.7,37.9,30.22,SE,143,5.8,5.8,57,0.00,,---,0.00,VWS V14.01,2013-04-28 10:22:00,
2013-04-28 06:27:00,52.7,37.9,30.22,South,176,7.8,8.4,57,0.00,,---,0.00,VWS V14.01,2013-04-28 10:27:00,
2013-04-28 06:32:00,52.7,37.9,30.22,SE,139,7.8,8.4,57,0.00,,---,0.00,VWS V14.01,2013-04-28 10:32:00,
2013-04-28 06:37:00,52.7,37.9,30.22,South,183,8.4,9.1,57,0.00,,---,0.00,VWS V14.01,2013-04-28 10:37:00,
2013-04-28 06:42:00,52.7,38.5,30.22,SE,144,7.1,7.1,58,0.00,,---,0.00,VWS V14.01,2013-04-28 10:42:00,
2013-04-28 06:47:00,52.7,38.5,30.22,SSW,212,3.9,7.8,58,0.00,,---,0.00,VWS V14.01,2013-04-28 10:47:00,
2013-04-28 06:52:00,52.7,38.5,30.22,South,186,3.9,5.8,58,0.00,,---,0.00,VWS V14.01,2013-04-28 10:52:00,
2013-04-28 06:57:00,52.9,38.7,30.22,South,186,0.0,3.2,58,0.00,,---,0.00,VWS V14.01,2013-04-28 10:57:00,
2013-04-28 07:02:00,52.9,38.7,30.22,SSE,151,4.5,5.8,58,0.00,,---,0.00,VWS V14.01,2013-04-28 11:02:00,
2013-04-28 07:08:00,52.9,38.7,30.22,South,181,5.8,7.1,58,0.00,,---,0.00,VWS V14.01,2013-04-28 11:08:00,
2013-04-28 07:13:00,52.9,38.7,30.22,SSW,204,3.9,3.9,58,0.00,,---,0.00,VWS V14.01,2013-04-28 11:13:00,
2013-04-28 07:18:00,52.9,38.7,30.22,South,178,5.8,9.1,58,0.00,,---,0.00,VWS V14.01,2013-04-28 11:18:00,
2013-04-28 07:23:00,52.9,38.7,30.22,South,174,3.9,8.4,58,0.00,,---,0.00,VWS V14.01,2013-04-28 11:23:00,
2013-04-28 07:28:00,52.7,38.5,30.22,SSE,164,4.5,4.5,58,0.00,,---,0.00,VWS V14.01,2013-04-28 11:28:00,
2013-04-28 07:33:00,52.7,39.1,30.22,SSE,164,8.4,8.4,60,0.00,,---,0.00,VWS V14.01,2013-04-28 11:33:00,
2013-04-28 07:39:00,52.7,39.1,30.22,South,180,0.0,7.1,60,0.00,,---,0.00,VWS V14.01,2013-04-28 11:39:00,
2013-04-28 07:44:00,52.9,39.3,30.22,SSE,165,3.9,3.9,60,0.00,,---,0.00,VWS V14.01,2013-04-28 11:44:00,
2013-04-28 07:49:00,52.9,39.3,30.22,South,178,4.5,5.2,60,0.00,,---,0.00,VWS V14.01,2013-04-28 11:49:00,
2013-04-28 07:54:00,52.9,39.3,30.22,South,169,5.8,5.8,60,0.00,,---,0.00,VWS V14.01,2013-04-28 11:54:00,
2013-04-28 07:59:00,53.1,39.5,30.22,SSE,149,4.5,5.8,60,0.00,,---,0.00,VWS V14.01,2013-04-28 11:59:00,
2013-04-28 08:04:00,53.1,39.5,30.22,South,182,0.0,0.0,60,0.00,,---,0.00,VWS V14.01,2013-04-28 12:04:00,
2013-04-28 08:09:00,53.1,40.0,30.22,South,183,3.9,4.5,61,0.00,,---,0.00,VWS V14.01,2013-04-28 12:09:00,
2013-04-28 08:14:00,53.1,40.0,30.22,SSE,152,5.8,8.4,61,0.00,,---,0.00,VWS V14.01,2013-04-28 12:14:00,
2013-04-28 08:20:00,53.2,40.2,30.22,ESE,115,7.1,7.1,61,0.00,,---,0.00,VWS V14.01,2013-04-28 12:20:00,
2013-04-28 08:25:00,53.2,40.2,30.22,South,189,5.2,9.1,61,0.00,,---,0.00,VWS V14.01,2013-04-28 12:25:00,
2013-04-28 08:30:00,53.2,40.2,30.22,SSE,162,4.5,4.5,61,0.00,,---,0.00,VWS V14.01,2013-04-28 12:30:00,
2013-04-28 08:35:00,53.2,40.2,30.22,SSE,157,8.4,9.1,61,0.00,,---,0.00,VWS V14.01,2013-04-28 12:35:00,
2013-04-28 08:40:00,53.2,40.2,30.22,South,170,3.2,3.2,61,0.00,,---,0.00,VWS V14.01,2013-04-28 12:40:00,
2013-04-28 08:45:00,53.4,40.4,30.22,SE,138,5.8,5.8,61,0.00,,---,0.00,VWS V14.01,2013-04-28 12:45:00,
2013-04-28 08:50:00,53.4,40.4,30.22,SSE,159,5.8,5.8,61,0.00,,---,0.00,VWS V14.01,2013-04-28 12:50:00,
2013-04-28 08:56:00,53.4,40.4,30.22,SSW,192,5.8,5.8,61,0.00,,---,0.00,VWS V14.01,2013-04-28 12:56:00,
2013-04-28 09:01:00,53.4,40.4,30.22,SSE,149,3.9,4.5,61,0.00,,---,0.00,VWS V14.01,2013-04-28 13:01:00,
2013-04-28 09:06:00,53.2,40.2,30.22,SE,126,5.8,9.1,61,0.00,,---,0.00,VWS V14.01,2013-04-28 13:06:00,
2013-04-28 09:11:00,53.1,40.0,30.22,SSW,194,3.9,7.8,61,0.00,,---,0.00,VWS V14.01,2013-04-28 13:11:00,
2013-04-28 09:16:00,53.1,40.6,30.22,SE,144,7.8,7.8,63,0.00,,---,0.00,VWS V14.01,2013-04-28 13:16:00,
2013-04-28 09:21:00,52.9,40.5,30.22,South,185,0.0,5.2,63,0.00,,---,0.00,VWS V14.01,2013-04-28 13:21:00,
2013-04-28 09:26:00,52.9,40.5,30.22,SSE,149,5.8,5.8,63,0.00,,---,0.00,VWS V14.01,2013-04-28 13:26:00,
2013-04-28 09:31:00,52.7,40.3,30.22,SSW,192,5.2,5.2,63,0.00,,---,0.00,VWS V14.01,2013-04-28 13:31:00,
2013-04-28 09:36:00,52.5,40.1,30.22,SSE,152,4.5,7.8,63,0.00,,---,0.00,VWS V14.01,2013-04-28 13:36:00,
2013-04-28 09:41:00,52.3,40.0,30.22,SSW,203,4.5,9.1,63,0.00,,---,0.00,VWS V14.01,2013-04-28 13:41:00,
2013-04-28 09:46:00,52.2,40.3,30.22,SSE,164,8.4,8.4,64,0.00,,---,0.00,VWS V14.01,2013-04-28 13:46:00,
2013-04-28 09:51:00,52.0,40.2,30.22,SSE,157,5.8,8.4,64,0.00,,---,0.00,VWS V14.01,2013-04-28 13:51:00,
2013-04-28 09:56:00,51.8,40.0,30.22,SSE,147,7.1,7.1,64,0.00,,---,0.00,VWS V14.01,2013-04-28 13:56:00,
2013-04-28 10:01:00,52.0,40.2,30.22,SSE,165,3.9,5.2,64,0.00,,---,0.00,VWS V14.01,2013-04-28 14:01:00,
2013-04-28 10:06:00,52.0,40.2,30.22,South,180,5.2,7.1,64,0.00,,---,0.00,VWS V14.01,2013-04-28 14:06:00,
2013-04-28 10:12:00,51.8,40.0,30.25,SSW,202,3.9,3.9,64,0.00,,---,0.00,VWS V14.01,2013-04-28 14:12:00,
2013-04-28 10:17:00,51.8,40.5,30.25,South,169,6.5,7.1,65,0.00,,---,0.00,VWS V14.01,2013-04-28 14:17:00,
2013-04-28 10:22:00,51.8,40.5,30.25,SSW,193,0.0,0.0,65,0.00,,---,0.00,VWS V14.01,2013-04-28 14:22:00,
2013-04-28 10:27:00,52.0,40.7,30.25,SSE,167,5.2,7.1,65,0.00,,---,0.00,VWS V14.01,2013-04-28 14:27:00,
2013-04-28 10:32:00,52.0,41.3,30.25,South,184,7.8,7.8,67,0.00,,---,0.00,VWS V14.01,2013-04-28 14:32:00,
2013-04-28 10:37:00,52.0,41.3,30.25,South,189,4.5,4.5,67,0.00,,---,0.00,VWS V14.01,2013-04-28 14:37:00,
2013-04-28 10:42:00,52.0,41.3,30.25,South,169,5.2,7.8,67,0.00,,---,0.00,VWS V14.01,2013-04-28 14:42:00,
2013-04-28 10:47:00,52.0,41.3,30.25,SSW,205,4.5,7.8,67,0.00,,---,0.00,VWS V14.01,2013-04-28 14:47:00,
2013-04-28 10:52:00,52.2,41.4,30.25,SSE,155,8.4,8.4,67,0.00,,---,0.00,VWS V14.01,2013-04-28 14:52:00,
2013-04-28 10:58:00,52.2,42.0,30.25,South,191,7.1,9.1,68,0.00,,---,0.00,VWS V14.01,2013-04-28 14:58:00,
2013-04-28 11:03:00,52.5,42.3,30.25,SE,133,5.8,5.8,68,0.00,,---,0.00,VWS V14.01,2013-04-28 15:03:00,
2013-04-28 11:08:00,52.9,43.2,30.25,SSE,159,3.2,4.5,70,0.00,,---,0.00,VWS V14.01,2013-04-28 15:08:00,
2013-04-28 11:13:00,53.2,43.5,30.22,South,171,3.9,5.2,70,0.00,,---,0.00,VWS V14.01,2013-04-28 15:13:00,
2013-04-28 11:18:00,53.6,43.9,30.22,South,184,4.5,4.5,70,0.00,,---,0.00,VWS V14.01,2013-04-28 15:18:00,
2013-04-28 11:23:00,54.0,44.2,30.22,SE,144,5.2,7.1,70,0.00,,---,0.00,VWS V14.01,2013-04-28 15:23:00,
2013-04-28 11:29:00,54.0,44.2,30.25,South,178,5.2,5.2,70,0.00,,---,0.00,VWS V14.01,2013-04-28 15:29:00,
2013-04-28 11:34:00,54.1,44.4,30.25,SSW,197,11.0,12.6,70,0.00,,---,0.00,VWS V14.01,2013-04-28 15:34:00,
2013-04-28 11:39:00,54.1,44.4,30.25,SSW,197,5.8,5.8,70,0.00,,---,0.00,VWS V14.01,2013-04-28 15:39:00,
2013-04-28 11:44:00,54.1,44.4,30.25,SSE,163,10.4,10.4,70,0.00,,---,0.00,VWS V14.01,2013-04-28 15:44:00,
2013-04-28 11:49:00,54.1,44.4,30.25,SSW,202,3.9,5.2,70,0.00,,---,0.00,VWS V14.01,2013-04-28 15:49:00,
2013-04-28 11:55:00,54.1,44.4,30.25,SSW,194,0.0,7.8,70,0.00,,---,0.00,VWS V14.01,2013-04-28 15:55:00,
2013-04-28 12:00:00,54.1,44.4,30.25,SSE,166,5.2,7.8,70,0.00,,---,0.00,VWS V14.01,2013-04-28 16:00:00,
2013-04-28 12:05:00,54.1,44.4,30.25,SSW,202,9.1,9.1,70,0.00,,---,0.00,VWS V14.01,2013-04-28 16:05:00,
2013-04-28 12:10:00,54.3,44.6,30.25,SSE,166,7.8,9.1,70,0.00,,---,0.00,VWS V14.01,2013-04-28 16:10:00,
2013-04-28 12:15:00,54.1,44.4,30.22,SSW,207,9.1,9.1,70,0.00,,---,0.00,VWS V14.01,2013-04-28 16:15:00,
2013-04-28 12:20:00,54.0,44.7,30.22,South,173,4.5,4.5,71,0.04,,---,0.04,VWS V14.01,2013-04-28 16:20:00,
2013-04-28 12:25:00,54.0,44.7,30.22,SE,134,5.8,8.4,71,0.04,,---,0.04,VWS V14.01,2013-04-28 16:25:00,
2013-04-28 12:30:00,53.8,44.6,30.22,SSE,152,12.0,12.0,71,0.04,,---,0.04,VWS V14.01,2013-04-28 16:30:00,
2013-04-28 12:36:00,53.4,44.2,30.22,South,187,5.2,8.4,71,0.04,,---,0.04,VWS V14.01,2013-04-28 16:36:00,
2013-04-28 12:41:00,53.4,44.2,30.22,SSE,165,12.0,13.9,71,0.04,,---,0.04,VWS V14.01,2013-04-28 16:41:00,
2013-04-28 12:46:00,53.2,44.0,30.22,South,172,7.1,8.4,71,0.04,,---,0.04,VWS V14.01,2013-04-28 16:46:00,
2013-04-28 12:51:00,53.1,44.4,30.22,SW,229,0.0,3.2,72,0.08,,---,0.08,VWS V14.01,2013-04-28 16:51:00,
2013-04-28 12:56:00,53.1,44.4,30.22,SW,218,8.4,9.1,72,0.08,,---,0.08,VWS V14.01,2013-04-28 16:56:00,
2013-04-28 13:01:00,53.1,44.4,30.22,SSW,212,0.0,5.2,72,0.08,,---,0.08,VWS V14.01,2013-04-28 17:01:00,
2013-04-28 13:07:00,53.1,45.4,30.22,East,92,5.2,7.1,75,0.08,,---,0.08,VWS V14.01,2013-04-28 17:07:00,
2013-04-28 13:12:00,53.1,45.4,30.22,South,181,11.0,15.9,75,0.08,,---,0.08,VWS V14.01,2013-04-28 17:12:00,
2013-04-28 13:17:00,52.9,44.7,30.22,SSE,156,11.0,11.0,74,0.08,,---,0.08,VWS V14.01,2013-04-28 17:17:00,
2013-04-28 13:22:00,53.1,45.4,30.22,South,171,12.0,12.0,75,0.04,,---,0.08,VWS V14.01,2013-04-28 17:22:00,
2013-04-28 13:27:00,53.1,45.4,30.22,ESE,119,5.8,11.0,75,0.08,,---,0.12,VWS V14.01,2013-04-28 17:27:00,
2013-04-28 13:32:00,52.9,45.2,30.22,South,175,5.8,9.7,75,0.08,,---,0.12,VWS V14.01,2013-04-28 17:32:00,
2013-04-28 13:38:00,52.9,45.2,30.22,SSW,195,3.9,13.3,75,0.08,,---,0.12,VWS V14.01,2013-04-28 17:38:00,
2013-04-28 13:43:00,52.9,45.2,30.22,SSE,147,7.8,7.8,75,0.08,,---,0.12,VWS V14.01,2013-04-28 17:43:00,
2013-04-28 13:48:00,52.9,45.7,30.22,SSE,164,8.4,8.4,76,0.08,,---,0.12,VWS V14.01,2013-04-28 17:48:00,
2013-04-28 13:53:00,52.9,45.7,30.22,South,179,8.4,14.6,76,0.04,,---,0.12,VWS V14.01,2013-04-28 17:53:00,
2013-04-28 13:58:00,53.1,45.9,30.19,SSE,149,12.0,12.0,76,0.04,,---,0.12,VWS V14.01,2013-04-28 17:58:00,
2013-04-28 14:03:00,53.1,45.9,30.19,SE,139,12.0,12.0,76,0.04,,---,0.12,VWS V14.01,2013-04-28 18:03:00,
2013-04-28 14:08:00,53.1,46.3,30.19,SE,132,4.5,11.7,78,0.04,,---,0.12,VWS V14.01,2013-04-28 18:08:00,
2013-04-28 14:13:00,53.2,46.5,30.19,SSW,206,7.8,15.2,78,0.04,,---,0.12,VWS V14.01,2013-04-28 18:13:00,
2013-04-28 14:18:00,53.4,46.7,30.19,SSE,158,9.1,12.6,78,0.04,,---,0.12,VWS V14.01,2013-04-28 18:18:00,
2013-04-28 14:23:00,53.4,46.7,30.19,SSE,149,15.9,15.9,78,0.04,,---,0.12,VWS V14.01,2013-04-28 18:23:00,
2013-04-28 14:28:00,53.4,46.7,30.19,SSE,160,4.5,5.8,78,0.00,,---,0.12,VWS V14.01,2013-04-28 18:28:00,
2013-04-28 14:34:00,53.6,46.9,30.19,SSW,206,11.7,11.7,78,0.00,,---,0.12,VWS V14.01,2013-04-28 18:34:00,
2013-04-28 14:39:00,53.6,46.9,30.19,WSW,239,7.1,11.0,78,0.00,,---,0.12,VWS V14.01,2013-04-28 18:39:00,
2013-04-28 14:44:00,53.8,47.5,30.19,East,99,7.8,7.8,79,0.00,,---,0.12,VWS V14.01,2013-04-28 18:44:00,
2013-04-28 14:49:00,54.0,47.2,30.19,SSW,202,11.0,12.6,78,0.00,,---,0.12,VWS V14.01,2013-04-28 18:49:00,
2013-04-28 14:54:00,54.1,47.9,30.19,SSW,200,9.1,17.8,79,0.00,,---,0.12,VWS V14.01,2013-04-28 18:54:00,
2013-04-28 14:59:00,54.1,47.9,30.19,SSW,197,5.8,12.0,79,0.00,,---,0.12,VWS V14.01,2013-04-28 18:59:00,
2013-04-28 15:05:00,54.3,47.6,30.19,SSW,204,9.1,14.6,78,0.00,,---,0.12,VWS V14.01,2013-04-28 19:05:00,
2013-04-28 15:10:00,54.5,47.7,30.19,SSW,205,5.2,15.2,78,0.00,,---,0.12,VWS V14.01,2013-04-28 19:10:00,
2013-04-28 15:15:00,54.5,47.7,30.19,South,182,8.4,12.0,78,0.00,,---,0.12,VWS V14.01,2013-04-28 19:15:00,
2013-04-28 15:20:00,54.9,48.1,30.19,SSW,205,7.8,8.4,78,0.00,,---,0.12,VWS V14.01,2013-04-28 19:20:00,
2013-04-28 15:25:00,55.2,48.4,30.19,SW,236,12.0,12.0,78,0.00,,---,0.12,VWS V14.01,2013-04-28 19:25:00,
2013-04-28 15:30:00,55.4,48.1,30.16,SSE,167,14.6,15.9,76,0.00,,---,0.12,VWS V14.01,2013-04-28 19:30:00,
2013-04-28 15:35:00,55.2,48.0,30.16,South,182,9.1,11.7,76,0.00,,---,0.12,VWS V14.01,2013-04-28 19:35:00,
2013-04-28 15:40:00,55.0,47.3,30.16,SSE,159,8.4,12.0,75,0.00,,---,0.12,VWS V14.01,2013-04-28 19:40:00,
2013-04-28 15:46:00,54.9,47.1,30.16,SE,143,5.2,9.1,75,0.00,,---,0.12,VWS V14.01,2013-04-28 19:46:00,
2013-04-28 15:51:00,54.7,46.9,30.16,SSE,158,11.7,12.0,75,0.00,,---,0.12,VWS V14.01,2013-04-28 19:51:00,
2013-04-28 15:56:00,54.5,46.3,30.16,SSW,195,11.7,11.7,74,0.00,,---,0.12,VWS V14.01,2013-04-28 19:56:00,
2013-04-28 16:01:00,54.5,46.3,30.16,SW,216,5.8,5.8,74,0.00,,---,0.12,VWS V14.01,2013-04-28 20:01:00,
2013-04-28 16:06:00,54.5,46.3,30.16,South,170,3.9,8.4,74,0.00,,---,0.12,VWS V14.01,2013-04-28 20:06:00,
2013-04-28 16:11:00,54.5,46.3,30.16,SSW,194,9.1,10.4,74,0.00,,---,0.12,VWS V14.01,2013-04-28 20:11:00,
2013-04-28 16:16:00,54.3,45.6,30.16,SE,135,17.8,17.8,72,0.00,,---,0.12,VWS V14.01,2013-04-28 20:16:00,
2013-04-28 16:21:00,54.1,45.4,30.16,WNW,290,3.9,11.0,72,0.00,,---,0.12,VWS V14.01,2013-04-28 20:21:00,
2013-04-28 16:27:00,54.0,45.2,30.16,South,173,8.4,8.4,72,0.00,,---,0.12,VWS V14.01,2013-04-28 20:27:00,
2013-04-28 16:32:00,53.8,44.6,30.16,SSW,210,7.1,8.4,71,0.00,,---,0.12,VWS V14.01,2013-04-28 20:32:00,
2013-04-28 16:37:00,53.8,44.6,30.16,South,184,11.0,12.0,71,0.00,,---,0.12,VWS V14.01,2013-04-28 20:37:00,
2013-04-28 16:42:00,53.6,44.4,30.16,SSE,155,3.2,3.9,71,0.00,,---,0.12,VWS V14.01,2013-04-28 20:42:00,
2013-04-28 16:47:00,53.6,44.4,30.16,West,269,0.0,0.0,71,0.00,,---,0.12,VWS V14.01,2013-04-28 20:47:00,
2013-04-28 16:52:00,53.6,44.4,30.16,SSW,211,0.0,0.0,71,0.00,,---,0.12,VWS V14.01,2013-04-28 20:52:00,
2013-04-28 16:58:00,53.6,44.4,30.16,NNE,18,4.5,4.5,71,0.00,,---,0.12,VWS V14.01,2013-04-28 20:58:00,
2013-04-28 17:03:00,53.6,44.4,30.16,WSW,256,0.0,3.2,71,0.00,,---,0.12,VWS V14.01,2013-04-28 21:03:00,
2013-04-28 17:08:00,53.4,44.7,30.16,South,186,3.9,11.7,72,0.00,,---,0.12,VWS V14.01,2013-04-28 21:08:00,
2013-04-28 17:13:00,53.4,44.7,30.16,South,172,4.5,7.1,72,0.00,,---,0.12,VWS V14.01,2013-04-28 21:13:00,
2013-04-28 17:18:00,53.4,44.2,30.16,SSW,194,8.4,11.0,71,0.00,,---,0.12,VWS V14.01,2013-04-28 21:18:00,
2013-04-28 17:23:00,53.4,44.7,30.16,East,101,5.2,12.0,72,0.00,,---,0.12,VWS V14.01,2013-04-28 21:23:00,
2013-04-28 17:28:00,53.4,44.7,30.14,SW,215,7.8,11.7,72,0.00,,---,0.12,VWS V14.01,2013-04-28 21:28:00,
2013-04-28 17:33:00,53.4,44.7,30.14,SSE,147,3.2,7.8,72,0.00,,---,0.12,VWS V14.01,2013-04-28 21:33:00,
2013-04-28 17:38:00,53.4,44.7,30.14,SSE,160,0.0,7.8,72,0.00,,---,0.12,VWS V14.01,2013-04-28 21:38:00,
2013-04-28 17:44:00,53.4,44.7,30.14,West,260,8.4,8.4,72,0.00,,---,0.12,VWS V14.01,2013-04-28 21:44:00,
2013-04-28 17:49:00,53.6,44.4,30.14,SE,141,9.1,12.6,71,0.00,,---,0.12,VWS V14.01,2013-04-28 21:49:00,
2013-04-28 17:54:00,53.6,44.4,30.14,SSE,159,9.1,9.1,71,0.00,,---,0.12,VWS V14.01,2013-04-28 21:54:00,
2013-04-28 17:59:00,53.6,44.4,30.14,SSE,164,0.0,3.2,71,0.00,,---,0.12,VWS V14.01,2013-04-28 21:59:00,
2013-04-28 18:04:00,53.6,44.4,30.14,SSW,209,8.4,8.4,71,0.00,,---,0.12,VWS V14.01,2013-04-28 22:04:00,
2013-04-28 18:09:00,53.6,44.4,30.14,SE,132,4.5,8.4,71,0.00,,---,0.12,VWS V14.01,2013-04-28 22:09:00,
2013-04-28 18:15:00,53.4,44.2,30.14,SSW,207,5.2,9.1,71,0.00,,---,0.12,VWS V14.01,2013-04-28 22:15:00,
2013-04-28 18:20:00,53.4,44.2,30.14,SE,139,12.6,12.6,71,0.00,,---,0.12,VWS V14.01,2013-04-28 22:20:00,
2013-04-28 18:25:00,53.4,44.2,30.14,SSE,161,13.9,13.9,71,0.00,,---,0.12,VWS V14.01,2013-04-28 22:25:00,
2013-04-28 18:30:00,53.6,43.9,30.11,SE,145,14.6,14.6,70,0.00,,---,0.12,VWS V14.01,2013-04-28 22:30:00,
2013-04-28 18:35:00,53.4,44.2,30.11,SSE,152,24.3,24.3,71,0.00,,---,0.12,VWS V14.01,2013-04-28 22:35:00,
2013-04-28 18:40:00,53.4,43.7,30.11,SSE,158,12.6,16.5,70,0.00,,---,0.12,VWS V14.01,2013-04-28 22:40:00,
2013-04-28 18:45:00,53.4,43.7,30.11,SSE,155,14.6,15.9,70,0.00,,---,0.12,VWS V14.01,2013-04-28 22:45:00,
2013-04-28 18:50:00,53.4,43.7,30.11,SSE,167,5.8,11.0,70,0.00,,---,0.12,VWS V14.01,2013-04-28 22:50:00,
2013-04-28 18:55:00,53.4,43.7,30.11,South,175,5.8,8.4,70,0.00,,---,0.12,VWS V14.01,2013-04-28 22:55:00,
2013-04-28 19:00:00,53.4,43.7,30.11,SW,216,5.8,7.8,70,0.00,,---,0.12,VWS V14.01,2013-04-28 23:00:00,
2013-04-28 19:05:00,53.2,43.5,30.11,SSE,165,0.0,7.1,70,0.00,,---,0.12,VWS V14.01,2013-04-28 23:05:00,
2013-04-28 19:11:00,53.2,43.5,30.11,South,172,3.9,3.9,70,0.00,,---,0.12,VWS V14.01,2013-04-28 23:11:00,
2013-04-28 19:16:00,53.2,43.5,30.14,SW,222,0.0,0.0,70,0.00,,---,0.12,VWS V14.01,2013-04-28 23:16:00,
2013-04-28 19:21:00,53.1,43.4,30.14,SW,221,3.9,5.8,70,0.00,,---,0.12,VWS V14.01,2013-04-28 23:21:00,
2013-04-28 19:26:00,53.1,43.4,30.14,SSW,200,0.0,0.0,70,0.00,,---,0.12,VWS V14.01,2013-04-28 23:26:00,
2013-04-28 19:31:00,53.1,43.4,30.14,SSW,211,0.0,0.0,70,0.00,,---,0.12,VWS V14.01,2013-04-28 23:31:00,
2013-04-28 19:36:00,53.1,43.4,30.14,SE,146,0.0,0.0,70,0.00,,---,0.12,VWS V14.01,2013-04-28 23:36:00,
2013-04-28 19:41:00,53.1,43.4,30.14,SW,224,0.0,0.0,70,0.00,,---,0.12,VWS V14.01,2013-04-28 23:41:00,
2013-04-28 19:47:00,53.1,43.4,30.14,South,183,3.9,3.9,70,0.00,,---,0.12,VWS V14.01,2013-04-28 23:47:00,
2013-04-28 19:52:00,53.1,43.4,30.14,South,189,0.0,0.0,70,0.00,,---,0.12,VWS V14.01,2013-04-28 23:52:00,
2013-04-28 19:57:00,53.1,43.4,30.14,WSW,248,0.0,0.0,70,0.00,,---,0.12,VWS V14.01,2013-04-28 23:57:00,
2013-04-28 20:02:00,53.1,43.4,30.14,WSW,248,0.0,0.0,70,0.00,,---,0.12,VWS V14.01,2013-04-29 00:02:00,
2013-04-28 20:07:00,53.1,43.4,30.14,SE,139,4.5,4.5,70,0.00,,---,0.12,VWS V14.01,2013-04-29 00:07:00,
2013-04-28 20:12:00,53.1,43.4,30.14,SSW,196,0.0,3.9,70,0.00,,---,0.12,VWS V14.01,2013-04-29 00:12:00,
2013-04-28 20:17:00,53.1,43.4,30.14,SW,218,0.0,0.0,70,0.00,,---,0.12,VWS V14.01,2013-04-29 00:17:00,
2013-04-28 20:22:00,53.1,43.4,30.14,SSE,157,0.0,0.0,70,0.00,,---,0.12,VWS V14.01,2013-04-29 00:22:00,
2013-04-28 20:27:00,53.1,43.4,30.14,SSW,209,4.5,4.5,70,0.00,,---,0.12,VWS V14.01,2013-04-29 00:27:00,
2013-04-28 20:32:00,53.1,43.4,30.14,South,191,6.5,6.5,70,0.00,,---,0.12,VWS V14.01,2013-04-29 00:32:00,
2013-04-28 20:37:00,53.1,43.4,30.14,SSW,198,12.0,12.0,70,0.00,,---,0.12,VWS V14.01,2013-04-29 00:37:00,
2013-04-28 20:42:00,53.2,43.5,30.14,SSE,150,7.8,8.4,70,0.00,,---,0.12,VWS V14.01,2013-04-29 00:42:00,
2013-04-28 20:47:00,53.2,43.5,30.14,SE,141,5.2,5.2,70,0.00,,---,0.12,VWS V14.01,2013-04-29 00:47:00,
2013-04-28 20:52:00,53.2,43.5,30.14,South,176,0.0,0.0,70,0.00,,---,0.12,VWS V14.01,2013-04-29 00:52:00,
2013-04-28 20:57:00,53.2,43.5,30.14,South,175,4.5,4.5,70,0.00,,---,0.12,VWS V14.01,2013-04-29 00:57:00,
2013-04-28 21:02:00,53.2,43.5,30.14,SSE,157,12.0,12.0,70,0.00,,---,0.12,VWS V14.01,2013-04-29 01:02:00,
2013-04-28 21:07:00,53.2,43.5,30.14,SSE,150,8.4,9.1,70,0.00,,---,0.12,VWS V14.01,2013-04-29 01:07:00,
2013-04-28 21:12:00,53.2,43.5,30.14,East,84,3.2,5.8,70,0.00,,---,0.12,VWS V14.01,2013-04-29 01:12:00,
2013-04-28 21:17:00,53.2,43.5,30.14,SSE,164,0.0,3.9,70,0.00,,---,0.12,VWS V14.01,2013-04-29 01:17:00,
2013-04-28 21:22:00,53.2,43.5,30.14,SSW,206,3.2,7.8,70,0.00,,---,0.12,VWS V14.01,2013-04-29 01:22:00,
2013-04-28 21:28:00,53.1,43.4,30.14,SW,236,4.5,4.5,70,0.00,,---,0.12,VWS V14.01,2013-04-29 01:28:00,
2013-04-28 21:33:00,52.9,43.2,30.14,South,178,4.5,5.8,70,0.00,,---,0.12,VWS V14.01,2013-04-29 01:33:00,
2013-04-28 21:38:00,52.7,43.0,30.14,South,188,3.9,5.2,70,0.00,,---,0.12,VWS V14.01,2013-04-29 01:38:00,
2013-04-28 21:43:00,52.5,43.4,30.14,South,175,7.8,11.0,71,0.00,,---,0.12,VWS V14.01,2013-04-29 01:43:00,
2013-04-28 21:48:00,52.3,43.2,30.14,South,176,8.4,9.7,71,0.00,,---,0.12,VWS V14.01,2013-04-29 01:48:00,
2013-04-28 21:53:00,52.3,43.2,30.14,SSE,147,5.2,8.4,71,0.00,,---,0.12,VWS V14.01,2013-04-29 01:53:00,
2013-04-28 21:58:00,52.2,43.0,30.14,SE,124,12.0,12.0,71,0.00,,---,0.12,VWS V14.01,2013-04-29 01:58:00,
2013-04-28 22:03:00,52.0,42.8,30.14,South,190,9.1,9.1,71,0.00,,---,0.12,VWS V14.01,2013-04-29 02:03:00,
2013-04-28 22:08:00,52.0,43.3,30.14,SSW,212,0.0,0.0,72,0.00,,---,0.12,VWS V14.01,2013-04-29 02:08:00,
2013-04-28 22:13:00,51.8,43.7,30.14,NE,42,8.4,8.4,74,0.00,,---,0.12,VWS V14.01,2013-04-29 02:13:00,
2013-04-28 22:18:00,51.8,43.7,30.14,SSE,166,0.0,5.8,74,0.00,,---,0.12,VWS V14.01,2013-04-29 02:18:00,
2013-04-28 22:23:00,51.8,43.7,30.14,West,271,3.9,4.5,74,0.00,,---,0.12,VWS V14.01,2013-04-29 02:23:00,
2013-04-28 22:28:00,51.8,44.2,30.14,SSE,158,7.8,13.9,75,0.00,,---,0.12,VWS V14.01,2013-04-29 02:28:00,
2013-04-28 22:33:00,51.6,44.0,30.14,West,272,0.0,0.0,75,0.00,,---,0.12,VWS V14.01,2013-04-29 02:33:00,
2013-04-28 22:38:00,51.6,44.5,30.14,ESE,111,11.7,11.7,76,0.00,,---,0.12,VWS V14.01,2013-04-29 02:38:00,
2013-04-28 22:43:00,51.6,44.5,30.14,South,186,0.0,0.0,76,0.00,,---,0.12,VWS V14.01,2013-04-29 02:43:00,
2013-04-28 22:48:00,51.4,44.3,30.14,South,177,4.5,11.0,76,0.00,,---,0.12,VWS V14.01,2013-04-29 02:48:00,
2013-04-28 22:53:00,51.4,44.3,30.14,WSW,250,0.0,0.0,76,0.00,,---,0.12,VWS V14.01,2013-04-29 02:53:00,
2013-04-28 22:59:00,51.3,44.6,30.14,ESE,120,0.0,4.5,78,0.00,,---,0.12,VWS V14.01,2013-04-29 02:59:00,
2013-04-28 23:04:00,51.3,44.6,30.14,SW,230,4.5,5.8,78,0.00,,---,0.12,VWS V14.01,2013-04-29 03:04:00,
2013-04-28 23:09:00,51.1,44.4,30.14,South,176,3.9,3.9,78,0.00,,---,0.12,VWS V14.01,2013-04-29 03:09:00,
2013-04-28 23:14:00,50.9,44.2,30.11,SW,236,0.0,0.0,78,0.00,,---,0.12,VWS V14.01,2013-04-29 03:14:00,
2013-04-28 23:19:00,50.9,44.2,30.11,WSW,237,0.0,3.2,78,0.00,,---,0.12,VWS V14.01,2013-04-29 03:19:00,
2013-04-28 23:24:00,50.9,44.2,30.11,SW,223,0.0,0.0,78,0.00,,---,0.12,VWS V14.01,2013-04-29 03:24:00,
2013-04-28 23:29:00,50.9,44.2,30.14,SW,219,0.0,0.0,78,0.00,,---,0.12,VWS V14.01,2013-04-29 03:29:00,
2013-04-28 23:34:00,50.9,44.2,30.14,SSW,203,0.0,0.0,78,0.00,,---,0.12,VWS V14.01,2013-04-29 03:34:00,
2013-04-28 23:40:00,50.9,44.2,30.14,WSW,249,0.0,0.0,78,0.00,,---,0.12,VWS V14.01,2013-04-29 03:40:00,
2013-04-28 23:45:00,50.7,44.1,30.14,SSW,205,0.0,0.0,78,0.00,,---,0.12,VWS V14.01,2013-04-29 03:45:00,
2013-04-28 23:50:00,50.7,44.1,30.14,West,265,0.0,0.0,78,0.00,,---,0.12,VWS V14.01,2013-04-29 03:50:00,
2013-04-28 23:55:00,50.7,44.1,30.14,SW,218,0.0,0.0,78,0.00,,---,0.12,VWS V14.01,2013-04-29 03:55:00,